Bloomfield, Indiana
Current Conditions -  °F | °C
As of 11:53 PM on Wednesday 17 Dec 2014 (Local Time) from KBMG Reporting Station
Overcast Overcast  
Wind Chill: 17°   Ceiling: 1200
Heat Index: 25°   Visibility: 9mi
Dew Point: 20°   Wind: 7mph
Humidity: 81%   Direction: 360°N
Pressure: 30.28"   Gusts: NA
Location:  39.03°N, 86.94°W
Report Text: KBMG 180453Z AUTO 36006KT 9SM OVC012 M04/M07 A3028 RMK AO2 SLP263 T10391067 410061044
Loading
Personal Weather Stations






























Interactive Weather Map New forecast layout! Learn more

10-Day Weather Forecast

Advertisements
Track Severe Weather on mobile